sensor_id;sensor_type;location;lat;lon;timestamp;P1;durP1;ratioP1;P2;durP2;ratioP2
18228;SDS011;9239;50.932;3.142;2023-10-09T00:01:39;8.90;;;5.80;;
18228;SDS011;9239;50.932;3.142;2023-10-09T00:04:10;6.00;;;5.25;;
18228;SDS011;9239;50.932;3.142;2023-10-09T00:06:39;6.13;;;5.05;;
18228;SDS011;9239;50.932;3.142;2023-10-09T00:09:08;8.10;;;6.13;;
18228;SDS011;9239;50.932;3.142;2023-10-09T00:11:55;7.25;;;5.70;;
18228;SDS011;9239;50.932;3.142;2023-10-09T00:14:23;9.13;;;6.53;;
18228;SDS011;9239;50.932;3.142;2023-10-09T00:16:51;7.53;;;6.13;;
18228;SDS011;9239;50.932;3.142;2023-10-09T00:19:31;7.97;;;6.72;;
18228;SDS011;9239;50.932;3.142;2023-10-09T00:21:58;6.70;;;5.68;;
18228;SDS011;9239;50.932;3.142;2023-10-09T00:24:31;8.38;;;6.68;;
18228;SDS011;9239;50.932;3.142;2023-10-09T00:26:59;8.45;;;7.45;;
18228;SDS011;9239;50.932;3.142;2023-10-09T00:29:37;7.72;;;6.95;;
18228;SDS011;9239;50.932;3.142;2023-10-09T00:32:10;8.38;;;6.60;;
18228;SDS011;9239;50.932;3.142;2023-10-09T00:34:42;8.50;;;7.60;;
18228;SDS011;9239;50.932;3.142;2023-10-09T00:37:10;8.20;;;7.18;;
18228;SDS011;9239;50.932;3.142;2023-10-09T00:39:41;8.20;;;7.40;;
18228;SDS011;9239;50.932;3.142;2023-10-09T00:42:09;7.88;;;7.07;;
18228;SDS011;9239;50.932;3.142;2023-10-09T00:44:40;8.93;;;6.95;;
18228;SDS011;9239;50.932;3.142;2023-10-09T00:47:07;7.88;;;6.70;;
18228;SDS011;9239;50.932;3.142;2023-10-09T00:49:49;8.10;;;7.13;;
18228;SDS011;9239;50.932;3.142;2023-10-09T00:52:24;9.05;;;7.70;;
18228;SDS011;9239;50.932;3.142;2023-10-09T00:55:06;10.77;;;8.05;;
18228;SDS011;9239;50.932;3.142;2023-10-09T00:57:39;9.13;;;7.35;;
18228;SDS011;9239;50.932;3.142;2023-10-09T01:00:15;10.40;;;8.10;;
18228;SDS011;9239;50.932;3.142;2023-10-09T01:02:57;8.63;;;7.72;;
18228;SDS011;9239;50.932;3.142;2023-10-09T01:05:45;11.25;;;7.60;;
18228;SDS011;9239;50.932;3.142;2023-10-09T01:08:18;9.00;;;6.93;;
18228;SDS011;9239;50.932;3.142;2023-10-09T01:10:54;8.98;;;7.20;;
18228;SDS011;9239;50.932;3.142;2023-10-09T01:13:23;8.25;;;7.45;;
18228;SDS011;9239;50.932;3.142;2023-10-09T01:16:04;8.27;;;6.80;;
18228;SDS011;9239;50.932;3.142;2023-10-09T01:18:34;7.97;;;7.20;;
18228;SDS011;9239;50.932;3.142;2023-10-09T01:21:09;8.85;;;6.97;;
18228;SDS011;9239;50.932;3.142;2023-10-09T01:23:41;8.13;;;7.07;;
18228;SDS011;9239;50.932;3.142;2023-10-09T01:26:27;8.45;;;7.22;;
18228;SDS011;9239;50.932;3.142;2023-10-09T01:28:57;8.85;;;7.38;;
18228;SDS011;9239;50.932;3.142;2023-10-09T01:31:25;12.40;;;9.00;;
18228;SDS011;9239;50.932;3.142;2023-10-09T01:33:52;10.55;;;7.32;;
18228;SDS011;9239;50.932;3.142;2023-10-09T01:36:24;9.18;;;7.72;;
18228;SDS011;9239;50.932;3.142;2023-10-09T01:38:59;7.60;;;6.90;;
18228;SDS011;9239;50.932;3.142;2023-10-09T01:41:26;7.28;;;6.43;;
18228;SDS011;9239;50.932;3.142;2023-10-09T01:43:59;9.65;;;8.27;;
18228;SDS011;9239;50.932;3.142;2023-10-09T01:46:35;8.13;;;7.32;;
18228;SDS011;9239;50.932;3.142;2023-10-09T01:49:02;10.82;;;8.00;;
18228;SDS011;9239;50.932;3.142;2023-10-09T01:51:36;9.68;;;7.35;;
18228;SDS011;9239;50.932;3.142;2023-10-09T01:54:05;10.18;;;8.60;;
18228;SDS011;9239;50.932;3.142;2023-10-09T01:56:32;9.95;;;7.88;;
18228;SDS011;9239;50.932;3.142;2023-10-09T01:59:03;8.85;;;8.00;;
18228;SDS011;9239;50.932;3.142;2023-10-09T02:01:31;8.93;;;8.02;;
18228;SDS011;9239;50.932;3.142;2023-10-09T02:03:58;11.98;;;8.70;;
18228;SDS011;9239;50.932;3.142;2023-10-09T02:06:31;9.32;;;8.30;;
18228;SDS011;9239;50.932;3.142;2023-10-09T02:08:58;10.93;;;9.75;;
18228;SDS011;9239;50.932;3.142;2023-10-09T02:11:26;13.13;;;9.00;;
18228;SDS011;9239;50.932;3.142;2023-10-09T02:14:06;10.27;;;8.85;;
18228;SDS011;9239;50.932;3.142;2023-10-09T02:16:44;11.90;;;10.63;;
18228;SDS011;9239;50.932;3.142;2023-10-09T02:19:27;11.68;;;10.60;;
18228;SDS011;9239;50.932;3.142;2023-10-09T02:21:56;13.35;;;10.32;;
18228;SDS011;9239;50.932;3.142;2023-10-09T02:24:25;14.40;;;10.88;;
18228;SDS011;9239;50.932;3.142;2023-10-09T02:27:12;12.90;;;11.55;;
18228;SDS011;9239;50.932;3.142;2023-10-09T02:29:45;14.70;;;11.80;;
18228;SDS011;9239;50.932;3.142;2023-10-09T02:32:12;12.90;;;11.60;;
18228;SDS011;9239;50.932;3.142;2023-10-09T02:34:42;12.60;;;11.05;;
18228;SDS011;9239;50.932;3.142;2023-10-09T02:37:12;13.50;;;12.10;;
18228;SDS011;9239;50.932;3.142;2023-10-09T02:39:39;13.63;;;11.93;;
18228;SDS011;9239;50.932;3.142;2023-10-09T02:42:14;14.20;;;12.65;;
18228;SDS011;9239;50.932;3.142;2023-10-09T02:44:48;16.05;;;13.23;;
18228;SDS011;9239;50.932;3.142;2023-10-09T02:47:17;13.70;;;12.40;;
18228;SDS011;9239;50.932;3.142;2023-10-09T02:49:50;12.70;;;11.38;;
18228;SDS011;9239;50.932;3.142;2023-10-09T02:52:17;17.15;;;12.50;;
18228;SDS011;9239;50.932;3.142;2023-10-09T02:54:50;13.13;;;11.82;;
18228;SDS011;9239;50.932;3.142;2023-10-09T02:57:27;15.73;;;13.50;;
18228;SDS011;9239;50.932;3.142;2023-10-09T03:00:02;15.13;;;13.63;;
18228;SDS011;9239;50.932;3.142;2023-10-09T03:02:33;17.58;;;12.95;;
18228;SDS011;9239;50.932;3.142;2023-10-09T03:05:05;16.13;;;14.48;;
18228;SDS011;9239;50.932;3.142;2023-10-09T03:07:37;13.90;;;12.50;;
18228;SDS011;9239;50.932;3.142;2023-10-09T03:10:05;13.90;;;12.48;;
18228;SDS011;9239;50.932;3.142;2023-10-09T03:12:36;15.38;;;13.05;;
18228;SDS011;9239;50.932;3.142;2023-10-09T03:15:04;14.82;;;13.13;;
18228;SDS011;9239;50.932;3.142;2023-10-09T03:17:34;14.75;;;13.25;;
18228;SDS011;9239;50.932;3.142;2023-10-09T03:20:02;14.52;;;13.13;;
18228;SDS011;9239;50.932;3.142;2023-10-09T03:22:37;14.85;;;12.88;;
18228;SDS011;9239;50.932;3.142;2023-10-09T03:25:04;14.10;;;12.68;;
18228;SDS011;9239;50.932;3.142;2023-10-09T03:27:38;15.85;;;14.02;;
18228;SDS011;9239;50.932;3.142;2023-10-09T03:30:11;14.20;;;12.80;;
18228;SDS011;9239;50.932;3.142;2023-10-09T03:32:43;15.23;;;13.70;;
18228;SDS011;9239;50.932;3.142;2023-10-09T03:35:17;15.82;;;13.88;;
18228;SDS011;9239;50.932;3.142;2023-10-09T03:37:53;17.00;;;14.45;;
18228;SDS011;9239;50.932;3.142;2023-10-09T03:40:22;15.00;;;12.75;;
18228;SDS011;9239;50.932;3.142;2023-10-09T03:42:51;16.48;;;14.77;;
18228;SDS011;9239;50.932;3.142;2023-10-09T03:45:19;15.18;;;13.60;;
18228;SDS011;9239;50.932;3.142;2023-10-09T03:47:52;15.80;;;13.90;;
18228;SDS011;9239;50.932;3.142;2023-10-09T03:50:23;16.15;;;14.45;;
18228;SDS011;9239;50.932;3.142;2023-10-09T03:53:00;14.80;;;13.30;;
18228;SDS011;9239;50.932;3.142;2023-10-09T03:55:31;15.13;;;13.55;;
18228;SDS011;9239;50.932;3.142;2023-10-09T03:58:00;16.38;;;14.68;;
18228;SDS011;9239;50.932;3.142;2023-10-09T04:02:55;18.63;;;15.18;;
18228;SDS011;9239;50.932;3.142;2023-10-09T04:05:22;16.73;;;14.52;;
18228;SDS011;9239;50.932;3.142;2023-10-09T04:07:49;18.08;;;15.38;;
18228;SDS011;9239;50.932;3.142;2023-10-09T04:10:19;18.60;;;16.42;;
18228;SDS011;9239;50.932;3.142;2023-10-09T04:13:05;18.45;;;15.35;;
18228;SDS011;9239;50.932;3.142;2023-10-09T04:15:36;17.40;;;14.45;;
18228;SDS011;9239;50.932;3.142;2023-10-09T04:18:07;16.50;;;14.00;;
18228;SDS011;9239;50.932;3.142;2023-10-09T04:20:40;17.33;;;15.52;;
18228;SDS011;9239;50.932;3.142;2023-10-09T04:23:25;16.95;;;15.25;;
18228;SDS011;9239;50.932;3.142;2023-10-09T04:26:00;17.48;;;15.68;;
18228;SDS011;9239;50.932;3.142;2023-10-09T04:28:37;17.60;;;15.65;;
18228;SDS011;9239;50.932;3.142;2023-10-09T04:31:07;16.55;;;14.15;;
18228;SDS011;9239;50.932;3.142;2023-10-09T04:33:34;16.48;;;14.75;;
18228;SDS011;9239;50.932;3.142;2023-10-09T04:36:08;17.15;;;15.25;;
18228;SDS011;9239;50.932;3.142;2023-10-09T04:38:41;16.08;;;14.38;;
18228;SDS011;9239;50.932;3.142;2023-10-09T04:41:20;16.35;;;14.55;;
18228;SDS011;9239;50.932;3.142;2023-10-09T04:43:58;16.42;;;14.55;;
18228;SDS011;9239;50.932;3.142;2023-10-09T04:46:29;17.02;;;14.73;;
18228;SDS011;9239;50.932;3.142;2023-10-09T04:49:08;16.77;;;15.00;;
18228;SDS011;9239;50.932;3.142;2023-10-09T04:51:52;15.93;;;14.32;;
18228;SDS011;9239;50.932;3.142;2023-10-09T04:54:30;17.48;;;14.55;;
18228;SDS011;9239;50.932;3.142;2023-10-09T04:57:04;17.30;;;14.02;;
18228;SDS011;9239;50.932;3.142;2023-10-09T04:59:44;15.95;;;14.18;;
18228;SDS011;9239;50.932;3.142;2023-10-09T05:02:13;18.25;;;15.65;;
18228;SDS011;9239;50.932;3.142;2023-10-09T05:04:44;17.08;;;14.60;;
18228;SDS011;9239;50.932;3.142;2023-10-09T05:07:16;17.42;;;15.18;;
18228;SDS011;9239;50.932;3.142;2023-10-09T05:09:49;17.13;;;15.27;;
18228;SDS011;9239;50.932;3.142;2023-10-09T05:12:22;18.35;;;16.48;;
18228;SDS011;9239;50.932;3.142;2023-10-09T05:14:53;17.58;;;15.93;;
18228;SDS011;9239;50.932;3.142;2023-10-09T05:17:33;17.75;;;15.82;;
18228;SDS011;9239;50.932;3.142;2023-10-09T05:20:03;17.38;;;15.57;;
18228;SDS011;9239;50.932;3.142;2023-10-09T05:22:48;17.02;;;15.35;;
18228;SDS011;9239;50.932;3.142;2023-10-09T05:25:40;17.13;;;15.38;;
18228;SDS011;9239;50.932;3.142;2023-10-09T05:28:18;16.90;;;15.25;;
18228;SDS011;9239;50.932;3.142;2023-10-09T05:30:57;20.52;;;18.45;;
18228;SDS011;9239;50.932;3.142;2023-10-09T05:33:33;17.65;;;15.95;;
18228;SDS011;9239;50.932;3.142;2023-10-09T05:36:02;18.83;;;15.60;;
18228;SDS011;9239;50.932;3.142;2023-10-09T05:38:56;17.20;;;15.23;;
18228;SDS011;9239;50.932;3.142;2023-10-09T05:41:43;19.65;;;17.55;;
18228;SDS011;9239;50.932;3.142;2023-10-09T05:44:24;20.20;;;18.13;;
18228;SDS011;9239;50.932;3.142;2023-10-09T05:47:10;18.63;;;16.67;;
18228;SDS011;9239;50.932;3.142;2023-10-09T05:50:00;19.20;;;17.13;;
18228;SDS011;9239;50.932;3.142;2023-10-09T05:52:44;20.35;;;18.38;;
18228;SDS011;9239;50.932;3.142;2023-10-09T05:55:30;20.55;;;18.48;;
18228;SDS011;9239;50.932;3.142;2023-10-09T05:58:18;21.23;;;17.75;;
18228;SDS011;9239;50.932;3.142;2023-10-09T06:01:02;19.70;;;17.70;;
18228;SDS011;9239;50.932;3.142;2023-10-09T06:03:48;21.83;;;19.58;;
18228;SDS011;9239;50.932;3.142;2023-10-09T06:06:18;22.88;;;20.48;;
18228;SDS011;9239;50.932;3.142;2023-10-09T06:08:59;22.35;;;20.15;;
18228;SDS011;9239;50.932;3.142;2023-10-09T06:11:45;23.55;;;21.05;;
18228;SDS011;9239;50.932;3.142;2023-10-09T06:14:15;22.25;;;19.90;;
18228;SDS011;9239;50.932;3.142;2023-10-09T06:16:50;24.85;;;21.33;;
18228;SDS011;9239;50.932;3.142;2023-10-09T06:19:36;23.83;;;20.58;;
18228;SDS011;9239;50.932;3.142;2023-10-09T06:22:08;23.08;;;20.50;;
18228;SDS011;9239;50.932;3.142;2023-10-09T06:24:55;23.67;;;19.67;;
18228;SDS011;9239;50.932;3.142;2023-10-09T06:27:22;26.52;;;21.42;;
18228;SDS011;9239;50.932;3.142;2023-10-09T06:30:12;22.10;;;19.63;;
18228;SDS011;9239;50.932;3.142;2023-10-09T06:32:40;24.38;;;20.95;;
18228;SDS011;9239;50.932;3.142;2023-10-09T06:35:17;26.45;;;22.13;;
18228;SDS011;9239;50.932;3.142;2023-10-09T06:37:48;22.77;;;20.42;;
18228;SDS011;9239;50.932;3.142;2023-10-09T06:40:33;23.85;;;20.67;;
18228;SDS011;9239;50.932;3.142;2023-10-09T06:43:18;22.67;;;20.30;;
18228;SDS011;9239;50.932;3.142;2023-10-09T06:45:53;24.27;;;20.75;;
18228;SDS011;9239;50.932;3.142;2023-10-09T06:48:23;24.20;;;20.17;;
18228;SDS011;9239;50.932;3.142;2023-10-09T06:51:22;23.30;;;20.85;;
18228;SDS011;9239;50.932;3.142;2023-10-09T06:54:08;22.58;;;20.20;;
18228;SDS011;9239;50.932;3.142;2023-10-09T06:56:35;24.42;;;20.35;;
18228;SDS011;9239;50.932;3.142;2023-10-09T06:59:19;23.95;;;20.52;;
18228;SDS011;9239;50.932;3.142;2023-10-09T07:01:49;24.67;;;21.17;;
18228;SDS011;9239;50.932;3.142;2023-10-09T07:04:33;23.70;;;20.98;;
18228;SDS011;9239;50.932;3.142;2023-10-09T07:07:14;22.42;;;20.15;;
18228;SDS011;9239;50.932;3.142;2023-10-09T07:09:41;24.73;;;21.40;;
18228;SDS011;9239;50.932;3.142;2023-10-09T07:12:09;26.30;;;22.40;;
18228;SDS011;9239;50.932;3.142;2023-10-09T07:14:39;22.83;;;20.48;;
18228;SDS011;9239;50.932;3.142;2023-10-09T07:17:23;24.30;;;21.67;;
18228;SDS011;9239;50.932;3.142;2023-10-09T07:20:09;23.63;;;21.20;;
18228;SDS011;9239;50.932;3.142;2023-10-09T07:22:42;23.45;;;21.08;;
18228;SDS011;9239;50.932;3.142;2023-10-09T07:25:38;22.58;;;19.98;;
18228;SDS011;9239;50.932;3.142;2023-10-09T07:28:20;22.95;;;20.38;;
18228;SDS011;9239;50.932;3.142;2023-10-09T07:31:07;23.65;;;20.60;;
18228;SDS011;9239;50.932;3.142;2023-10-09T07:33:49;23.13;;;20.38;;
18228;SDS011;9239;50.932;3.142;2023-10-09T07:36:23;25.77;;;21.90;;
18228;SDS011;9239;50.932;3.142;2023-10-09T07:39:03;24.83;;;21.85;;
18228;SDS011;9239;50.932;3.142;2023-10-09T07:41:39;23.75;;;21.02;;
18228;SDS011;9239;50.932;3.142;2023-10-09T07:44:10;23.25;;;20.38;;
18228;SDS011;9239;50.932;3.142;2023-10-09T07:47:00;22.77;;;20.30;;
18228;SDS011;9239;50.932;3.142;2023-10-09T07:49:42;25.60;;;21.92;;
18228;SDS011;9239;50.932;3.142;2023-10-09T07:52:13;22.58;;;19.50;;
18228;SDS011;9239;50.932;3.142;2023-10-09T07:54:43;25.02;;;21.85;;
18228;SDS011;9239;50.932;3.142;2023-10-09T07:57:18;23.80;;;21.35;;
18228;SDS011;9239;50.932;3.142;2023-10-09T07:59:51;25.45;;;22.77;;
18228;SDS011;9239;50.932;3.142;2023-10-09T08:02:26;24.80;;;21.85;;
18228;SDS011;9239;50.932;3.142;2023-10-09T08:04:58;25.02;;;21.63;;
18228;SDS011;9239;50.932;3.142;2023-10-09T08:07:31;23.17;;;20.92;;
18228;SDS011;9239;50.932;3.142;2023-10-09T08:10:02;26.63;;;21.20;;
18228;SDS011;9239;50.932;3.142;2023-10-09T08:12:58;22.98;;;20.60;;
18228;SDS011;9239;50.932;3.142;2023-10-09T08:15:45;23.13;;;20.92;;
18228;SDS011;9239;50.932;3.142;2023-10-09T08:18:17;22.02;;;19.65;;
18228;SDS011;9239;50.932;3.142;2023-10-09T08:20:53;24.33;;;21.85;;
18228;SDS011;9239;50.932;3.142;2023-10-09T08:23:34;22.35;;;20.08;;
18228;SDS011;9239;50.932;3.142;2023-10-09T08:26:15;25.95;;;21.95;;
18228;SDS011;9239;50.932;3.142;2023-10-09T08:28:55;24.92;;;22.33;;
18228;SDS011;9239;50.932;3.142;2023-10-09T08:31:39;25.13;;;22.33;;
18228;SDS011;9239;50.932;3.142;2023-10-09T08:34:11;24.77;;;21.20;;
18228;SDS011;9239;50.932;3.142;2023-10-09T08:36:49;23.98;;;21.48;;
18228;SDS011;9239;50.932;3.142;2023-10-09T08:39:18;22.73;;;19.98;;
18228;SDS011;9239;50.932;3.142;2023-10-09T08:41:53;27.88;;;22.95;;
18228;SDS011;9239;50.932;3.142;2023-10-09T08:44:23;25.05;;;22.33;;
18228;SDS011;9239;50.932;3.142;2023-10-09T08:46:53;23.38;;;20.58;;
18228;SDS011;9239;50.932;3.142;2023-10-09T08:49:22;24.85;;;20.58;;
18228;SDS011;9239;50.932;3.142;2023-10-09T08:51:50;24.40;;;20.83;;
18228;SDS011;9239;50.932;3.142;2023-10-09T08:54:17;22.88;;;20.48;;
18228;SDS011;9239;50.932;3.142;2023-10-09T08:56:44;23.65;;;20.77;;
18228;SDS011;9239;50.932;3.142;2023-10-09T08:59:17;21.63;;;19.42;;
18228;SDS011;9239;50.932;3.142;2023-10-09T09:01:44;26.25;;;21.17;;
18228;SDS011;9239;50.932;3.142;2023-10-09T09:07:05;21.88;;;19.67;;
18228;SDS011;9239;50.932;3.142;2023-10-09T09:09:33;21.73;;;19.50;;
18228;SDS011;9239;50.932;3.142;2023-10-09T09:12:01;24.30;;;20.25;;
18228;SDS011;9239;50.932;3.142;2023-10-09T09:14:37;23.15;;;19.05;;
18228;SDS011;9239;50.932;3.142;2023-10-09T09:17:05;21.55;;;19.30;;
18228;SDS011;9239;50.932;3.142;2023-10-09T09:19:36;23.60;;;20.67;;
18228;SDS011;9239;50.932;3.142;2023-10-09T09:22:03;22.75;;;20.35;;
18228;SDS011;9239;50.932;3.142;2023-10-09T09:24:38;22.35;;;19.35;;
18228;SDS011;9239;50.932;3.142;2023-10-09T09:27:11;21.23;;;19.02;;
18228;SDS011;9239;50.932;3.142;2023-10-09T09:29:45;21.65;;;19.35;;
18228;SDS011;9239;50.932;3.142;2023-10-09T09:32:26;22.40;;;20.13;;
18228;SDS011;9239;50.932;3.142;2023-10-09T09:35:00;21.17;;;18.98;;
18228;SDS011;9239;50.932;3.142;2023-10-09T09:37:29;22.25;;;19.83;;
18228;SDS011;9239;50.932;3.142;2023-10-09T09:40:15;21.63;;;19.35;;
18228;SDS011;9239;50.932;3.142;2023-10-09T09:42:54;23.15;;;19.85;;
18228;SDS011;9239;50.932;3.142;2023-10-09T09:45:32;21.42;;;19.17;;
18228;SDS011;9239;50.932;3.142;2023-10-09T09:47:59;22.58;;;19.92;;
18228;SDS011;9239;50.932;3.142;2023-10-09T09:50:31;22.40;;;17.88;;
18228;SDS011;9239;50.932;3.142;2023-10-09T09:52:58;20.83;;;18.73;;
18228;SDS011;9239;50.932;3.142;2023-10-09T09:55:26;21.80;;;18.73;;
18228;SDS011;9239;50.932;3.142;2023-10-09T09:58:00;19.63;;;17.48;;
18228;SDS011;9239;50.932;3.142;2023-10-09T10:00:33;19.23;;;16.95;;
18228;SDS011;9239;50.932;3.142;2023-10-09T10:03:10;18.60;;;16.60;;
18228;SDS011;9239;50.932;3.142;2023-10-09T10:05:39;19.17;;;17.33;;
18228;SDS011;9239;50.932;3.142;2023-10-09T10:08:11;19.73;;;16.30;;
18228;SDS011;9239;50.932;3.142;2023-10-09T10:10:45;18.63;;;15.80;;
18228;SDS011;9239;50.932;3.142;2023-10-09T10:13:21;17.42;;;15.70;;
18228;SDS011;9239;50.932;3.142;2023-10-09T10:16:25;15.68;;;14.07;;
18228;SDS011;9239;50.932;3.142;2023-10-09T10:19:00;17.80;;;14.18;;
18228;SDS011;9239;50.932;3.142;2023-10-09T10:21:46;16.90;;;14.63;;
18228;SDS011;9239;50.932;3.142;2023-10-09T10:27:20;16.58;;;13.32;;
18228;SDS011;9239;50.932;3.142;2023-10-09T10:33:03;15.00;;;13.50;;
18228;SDS011;9239;50.932;3.142;2023-10-09T10:35:39;15.10;;;12.77;;
18228;SDS011;9239;50.932;3.142;2023-10-09T10:38:26;17.17;;;14.82;;
18228;SDS011;9239;50.932;3.142;2023-10-09T10:41:15;16.30;;;13.18;;
18228;SDS011;9239;50.932;3.142;2023-10-09T10:43:43;15.70;;;14.00;;
18228;SDS011;9239;50.932;3.142;2023-10-09T10:46:45;16.05;;;14.15;;
18228;SDS011;9239;50.932;3.142;2023-10-09T10:49:18;15.02;;;13.43;;
18228;SDS011;9239;50.932;3.142;2023-10-09T10:51:51;17.35;;;15.23;;
18228;SDS011;9239;50.932;3.142;2023-10-09T10:54:26;17.15;;;15.32;;
18228;SDS011;9239;50.932;3.142;2023-10-09T10:57:13;16.02;;;14.00;;
18228;SDS011;9239;50.932;3.142;2023-10-09T10:59:53;16.92;;;13.93;;
18228;SDS011;9239;50.932;3.142;2023-10-09T11:02:37;17.75;;;13.48;;
18228;SDS011;9239;50.932;3.142;2023-10-09T11:05:14;14.68;;;11.63;;
18228;SDS011;9239;50.932;3.142;2023-10-09T11:07:49;14.00;;;12.60;;
18228;SDS011;9239;50.932;3.142;2023-10-09T11:10:21;15.57;;;12.73;;
18228;SDS011;9239;50.932;3.142;2023-10-09T11:12:54;15.60;;;12.68;;
18228;SDS011;9239;50.932;3.142;2023-10-09T11:15:39;15.50;;;11.80;;
18228;SDS011;9239;50.932;3.142;2023-10-09T11:18:11;15.65;;;12.80;;
18228;SDS011;9239;50.932;3.142;2023-10-09T11:20:53;15.50;;;12.70;;
18228;SDS011;9239;50.932;3.142;2023-10-09T11:23:43;14.23;;;10.88;;
18228;SDS011;9239;50.932;3.142;2023-10-09T11:26:23;14.52;;;11.80;;
18228;SDS011;9239;50.932;3.142;2023-10-09T11:29:05;14.63;;;11.20;;
18228;SDS011;9239;50.932;3.142;2023-10-09T11:31:39;12.13;;;10.85;;
18228;SDS011;9239;50.932;3.142;2023-10-09T11:34:17;13.63;;;11.65;;
18228;SDS011;9239;50.932;3.142;2023-10-09T11:36:56;14.10;;;11.68;;
18228;SDS011;9239;50.932;3.142;2023-10-09T11:39:24;12.57;;;10.93;;
18228;SDS011;9239;50.932;3.142;2023-10-09T11:41:59;12.10;;;10.20;;
18228;SDS011;9239;50.932;3.142;2023-10-09T11:44:35;11.98;;;10.27;;
18228;SDS011;9239;50.932;3.142;2023-10-09T11:47:09;15.95;;;10.73;;
18228;SDS011;9239;50.932;3.142;2023-10-09T11:49:57;13.55;;;10.93;;
18228;SDS011;9239;50.932;3.142;2023-10-09T11:55:36;13.55;;;10.93;;
18228;SDS011;9239;50.932;3.142;2023-10-09T11:58:03;13.32;;;11.45;;
18228;SDS011;9239;50.932;3.142;2023-10-09T12:00:32;12.50;;;11.13;;
18228;SDS011;9239;50.932;3.142;2023-10-09T12:03:09;13.63;;;10.30;;
18228;SDS011;9239;50.932;3.142;2023-10-09T12:05:41;15.50;;;11.02;;
18228;SDS011;9239;50.932;3.142;2023-10-09T12:08:11;12.80;;;11.50;;
18228;SDS011;9239;50.932;3.142;2023-10-09T12:10:40;12.73;;;10.75;;
18228;SDS011;9239;50.932;3.142;2023-10-09T12:13:07;13.82;;;11.02;;
18228;SDS011;9239;50.932;3.142;2023-10-09T12:15:34;14.30;;;11.30;;
18228;SDS011;9239;50.932;3.142;2023-10-09T12:18:07;15.32;;;11.32;;
18228;SDS011;9239;50.932;3.142;2023-10-09T12:20:39;14.15;;;10.88;;
18228;SDS011;9239;50.932;3.142;2023-10-09T12:23:07;11.23;;;9.18;;
18228;SDS011;9239;50.932;3.142;2023-10-09T12:25:41;11.02;;;9.20;;
18228;SDS011;9239;50.932;3.142;2023-10-09T12:28:10;14.48;;;10.30;;
18228;SDS011;9239;50.932;3.142;2023-10-09T12:30:38;14.55;;;10.38;;
18228;SDS011;9239;50.932;3.142;2023-10-09T12:33:07;11.70;;;8.95;;
18228;SDS011;9239;50.932;3.142;2023-10-09T12:35:38;15.10;;;9.77;;
18228;SDS011;9239;50.932;3.142;2023-10-09T12:38:06;15.07;;;10.13;;
18228;SDS011;9239;50.932;3.142;2023-10-09T12:40:37;12.93;;;9.73;;
18228;SDS011;9239;50.932;3.142;2023-10-09T12:43:07;14.60;;;10.88;;
18228;SDS011;9239;50.932;3.142;2023-10-09T12:45:40;14.77;;;11.18;;
18228;SDS011;9239;50.932;3.142;2023-10-09T12:48:08;11.52;;;10.00;;
18228;SDS011;9239;50.932;3.142;2023-10-09T12:50:35;14.30;;;10.80;;
18228;SDS011;9239;50.932;3.142;2023-10-09T12:53:07;15.25;;;10.20;;
18228;SDS011;9239;50.932;3.142;2023-10-09T12:55:35;13.13;;;10.30;;
18228;SDS011;9239;50.932;3.142;2023-10-09T12:58:07;11.18;;;9.55;;
18228;SDS011;9239;50.932;3.142;2023-10-09T13:00:39;13.25;;;10.45;;
18228;SDS011;9239;50.932;3.142;2023-10-09T13:03:13;11.60;;;9.40;;
18228;SDS011;9239;50.932;3.142;2023-10-09T13:05:46;11.95;;;9.15;;
18228;SDS011;9239;50.932;3.142;2023-10-09T13:08:21;12.80;;;10.38;;
18228;SDS011;9239;50.932;3.142;2023-10-09T13:10:50;10.88;;;9.55;;
18228;SDS011;9239;50.932;3.142;2023-10-09T13:13:25;13.45;;;10.27;;
18228;SDS011;9239;50.932;3.142;2023-10-09T13:16:04;13.13;;;10.32;;
18228;SDS011;9239;50.932;3.142;2023-10-09T13:18:32;12.57;;;9.88;;
18228;SDS011;9239;50.932;3.142;2023-10-09T13:20:59;11.80;;;9.50;;
18228;SDS011;9239;50.932;3.142;2023-10-09T13:23:29;13.45;;;9.68;;
18228;SDS011;9239;50.932;3.142;2023-10-09T13:26:03;9.95;;;8.68;;
18228;SDS011;9239;50.932;3.142;2023-10-09T13:28:44;13.32;;;8.68;;
18228;SDS011;9239;50.932;3.142;2023-10-09T13:31:11;13.52;;;8.80;;
18228;SDS011;9239;50.932;3.142;2023-10-09T13:33:40;11.90;;;8.93;;
18228;SDS011;9239;50.932;3.142;2023-10-09T13:36:07;11.50;;;10.02;;
18228;SDS011;9239;50.932;3.142;2023-10-09T13:38:42;11.23;;;9.13;;
18228;SDS011;9239;50.932;3.142;2023-10-09T13:41:09;14.32;;;10.05;;
18228;SDS011;9239;50.932;3.142;2023-10-09T13:43:38;19.77;;;10.73;;
18228;SDS011;9239;50.932;3.142;2023-10-09T13:46:09;14.05;;;11.32;;
18228;SDS011;9239;50.932;3.142;2023-10-09T13:48:37;13.02;;;10.15;;
18228;SDS011;9239;50.932;3.142;2023-10-09T13:51:06;14.25;;;11.32;;
18228;SDS011;9239;50.932;3.142;2023-10-09T13:53:39;16.13;;;11.32;;
18228;SDS011;9239;50.932;3.142;2023-10-09T13:56:10;12.18;;;10.18;;
18228;SDS011;9239;50.932;3.142;2023-10-09T13:58:40;11.43;;;9.00;;
18228;SDS011;9239;50.932;3.142;2023-10-09T14:01:09;15.20;;;9.15;;
18228;SDS011;9239;50.932;3.142;2023-10-09T14:03:36;12.88;;;9.52;;
18228;SDS011;9239;50.932;3.142;2023-10-09T14:06:04;13.15;;;9.57;;
18228;SDS011;9239;50.932;3.142;2023-10-09T14:08:37;12.95;;;10.38;;
18228;SDS011;9239;50.932;3.142;2023-10-09T14:11:07;14.25;;;9.98;;
18228;SDS011;9239;50.932;3.142;2023-10-09T14:13:38;12.35;;;9.55;;
18228;SDS011;9239;50.932;3.142;2023-10-09T14:16:05;14.57;;;9.75;;
18228;SDS011;9239;50.932;3.142;2023-10-09T14:18:47;13.48;;;8.95;;
18228;SDS011;9239;50.932;3.142;2023-10-09T14:21:18;13.60;;;9.20;;
18228;SDS011;9239;50.932;3.142;2023-10-09T14:23:46;13.18;;;9.27;;
18228;SDS011;9239;50.932;3.142;2023-10-09T14:26:14;12.75;;;8.98;;
18228;SDS011;9239;50.932;3.142;2023-10-09T14:28:44;10.82;;;8.68;;
18228;SDS011;9239;50.932;3.142;2023-10-09T14:31:29;13.35;;;9.38;;
18228;SDS011;9239;50.932;3.142;2023-10-09T14:34:26;11.68;;;9.25;;
18228;SDS011;9239;50.932;3.142;2023-10-09T14:36:57;12.40;;;8.63;;
18228;SDS011;9239;50.932;3.142;2023-10-09T14:39:26;13.40;;;9.40;;
18228;SDS011;9239;50.932;3.142;2023-10-09T14:41:54;11.38;;;9.20;;
18228;SDS011;9239;50.932;3.142;2023-10-09T14:44:22;12.27;;;8.00;;
18228;SDS011;9239;50.932;3.142;2023-10-09T14:46:53;10.68;;;8.30;;
18228;SDS011;9239;50.932;3.142;2023-10-09T14:49:21;12.27;;;8.60;;
18228;SDS011;9239;50.932;3.142;2023-10-09T14:51:50;7.75;;;6.88;;
18228;SDS011;9239;50.932;3.142;2023-10-09T14:54:18;9.70;;;7.25;;
18228;SDS011;9239;50.932;3.142;2023-10-09T14:56:46;13.60;;;7.05;;
18228;SDS011;9239;50.932;3.142;2023-10-09T14:59:15;10.80;;;6.95;;
18228;SDS011;9239;50.932;3.142;2023-10-09T15:01:44;9.10;;;6.40;;
18228;SDS011;9239;50.932;3.142;2023-10-09T15:04:13;11.30;;;7.68;;
18228;SDS011;9239;50.932;3.142;2023-10-09T15:06:40;7.80;;;6.82;;
18228;SDS011;9239;50.932;3.142;2023-10-09T15:09:08;10.07;;;6.72;;
18228;SDS011;9239;50.932;3.142;2023-10-09T15:11:47;10.02;;;7.65;;
18228;SDS011;9239;50.932;3.142;2023-10-09T15:14:14;10.07;;;7.90;;
18228;SDS011;9239;50.932;3.142;2023-10-09T15:16:41;9.90;;;8.30;;
18228;SDS011;9239;50.932;3.142;2023-10-09T15:19:08;13.05;;;8.40;;
18228;SDS011;9239;50.932;3.142;2023-10-09T15:21:36;10.65;;;8.30;;
18228;SDS011;9239;50.932;3.142;2023-10-09T15:24:10;12.35;;;9.23;;
18228;SDS011;9239;50.932;3.142;2023-10-09T15:26:40;12.45;;;8.32;;
18228;SDS011;9239;50.932;3.142;2023-10-09T15:29:07;9.75;;;8.35;;
18228;SDS011;9239;50.932;3.142;2023-10-09T15:31:35;13.63;;;8.30;;
18228;SDS011;9239;50.932;3.142;2023-10-09T15:34:02;10.68;;;8.07;;
18228;SDS011;9239;50.932;3.142;2023-10-09T15:36:33;10.93;;;8.43;;